Aviation WX

[Source: ADDS]
METAR
KFKL 170656Z AUTO 22006KT 10SM CLR 04/01 A3001 RMK AO2 SLP172 T00390011 =
KFKL 170520Z 1706/1806 23010KT P6SM SKC WS020/27040KT FM171500 27012G22KT P6SM VCSH BKN015 FM172000 30015G28KT P6SM VCSH BKN025 FM180200 31012KT P6SM OVC015
TAF
KFKL 170520Z 1706/1806 23010KT P6SM SKC WS020/27040KT FM171500 27012G22KT P6SM VCSH BKN015 FM172000 30015G28KT P6SM VCSH BKN025 FM180200 31012KT P6SM OVC015 =

Clarion Airport T-Shirts

small

Development Areas on Airport

Development areas as listed in the Pennsylvania Department of Transportation,
 Bureau of Aviation Airport Properties Directory


DevAreaMod


Area 1 - 7 acre area for development needing access to runway      
Area 2 - 7 acre area for development not needing access to runway



There are several other Industrial Development areas available on the airport,
and at other sites with easy access to the airport.
Please contact the Clarion County Airport Authority at (814) 226 - 9993, or This email address is being protected from spambots. You need JavaScript enabled to view it.
You can also contact the Clarion County Economic Development Corporation at
(814) 226 - 9045.

Resourceful Links:
Clarion Chamber of Commerce
Clarion County Economic Development Corporation